Carbonville, Utah
Current Conditions -  °F | °C
As of 9:53 PM on Tuesday 25 Nov 2014 (Local Time) from KPUC Reporting Station
Broken Clouds Broken Clouds  
Wind Chill: 33°   Ceiling: 6000
Heat Index: 33°   Visibility: 10mi
Dew Point: 21°   Wind: 0mph
Humidity: 61%   Direction: NA
Pressure: 30.28"   Gusts: NA
Location:  39.5589°N, 110.911°W
Report Text: KPUC 260453Z AUTO 00000KT 10SM FEW050 BKN060 01/M06 A3028 RMK AO2 SLP293 T00061061
Loading
Personal Weather Stations






























Interactive Weather Map New forecast layout! Learn more

10-Day Weather Forecast

Advertisements
Track Severe Weather on mobile